createdAt,value
2023-05-03T00:00:27.652Z,2.40
2023-05-03T00:02:57.290Z,2.70
2023-05-03T00:05:27.922Z,2.60
2023-05-03T00:07:56.976Z,2.97
2023-05-03T00:10:25.295Z,2.30
2023-05-03T00:12:53.476Z,2.10
2023-05-03T00:15:23.011Z,2.37
2023-05-03T00:17:51.516Z,2.50
2023-05-03T00:20:20.692Z,2.30
2023-05-03T00:22:48.895Z,2.40
2023-05-03T00:25:17.136Z,2.43
2023-05-03T00:27:45.389Z,2.57
2023-05-03T00:30:13.966Z,2.50
2023-05-03T00:32:43.567Z,2.80
2023-05-03T00:35:11.986Z,2.60
2023-05-03T00:37:40.312Z,2.67
2023-05-03T00:40:09.915Z,3.07
2023-05-03T00:42:38.458Z,3.00
2023-05-03T00:45:07.335Z,3.10
2023-05-03T00:47:35.536Z,2.80
2023-05-03T00:50:05.625Z,3.20
2023-05-03T00:52:34.200Z,2.83
2023-05-03T00:55:02.418Z,3.00
2023-05-03T00:57:31.506Z,3.27
2023-05-03T00:59:59.896Z,3.33
2023-05-03T01:02:28.368Z,3.10
2023-05-03T01:04:56.983Z,3.40
2023-05-03T01:07:31.747Z,3.87
2023-05-03T01:10:02.145Z,3.50
2023-05-03T01:12:34.702Z,3.67
2023-05-03T01:15:09.106Z,3.80
2023-05-03T01:17:38.284Z,3.90
2023-05-03T01:20:08.659Z,3.97
2023-05-03T01:22:43.307Z,4.23
2023-05-03T01:25:13.833Z,3.97
2023-05-03T01:27:42.700Z,4.17
2023-05-03T01:30:11.815Z,4.00
2023-05-03T01:32:47.157Z,3.97
2023-05-03T01:35:20.214Z,4.27
2023-05-03T01:37:48.739Z,3.60
2023-05-03T01:40:19.867Z,3.90
2023-05-03T01:42:48.988Z,4.07
2023-05-03T01:45:17.419Z,3.53
2023-05-03T01:47:45.697Z,3.90
2023-05-03T01:50:13.850Z,3.80
2023-05-03T01:52:42.000Z,4.03
2023-05-03T01:55:10.640Z,3.97
2023-05-03T01:57:40.188Z,4.27
2023-05-03T02:00:09.811Z,3.90
2023-05-03T02:02:38.163Z,3.90
2023-05-03T02:05:06.797Z,4.07
2023-05-03T02:07:34.975Z,3.80
2023-05-03T02:10:03.264Z,3.70
2023-05-03T02:12:31.652Z,3.83
2023-05-03T02:15:01.181Z,3.83
2023-05-03T02:17:29.366Z,4.30
2023-05-03T02:19:57.502Z,4.37
2023-05-03T02:22:25.816Z,3.90
2023-05-03T02:24:54.001Z,4.07
2023-05-03T02:27:22.189Z,4.27
2023-05-03T02:29:50.359Z,4.10
2023-05-03T02:32:21.024Z,3.80
2023-05-03T02:34:50.010Z,3.90
2023-05-03T02:37:18.203Z,4.27
2023-05-03T02:39:46.321Z,4.10
2023-05-03T02:42:14.471Z,4.10
2023-05-03T02:44:42.812Z,3.80
2023-05-03T02:47:11.152Z,3.70
2023-05-03T02:49:40.730Z,3.50
2023-05-03T02:52:09.087Z,3.97
2023-05-03T02:54:37.194Z,3.20
2023-05-03T02:57:06.102Z,3.30
2023-05-03T02:59:34.249Z,3.47
2023-05-03T03:02:02.633Z,3.50
2023-05-03T03:04:30.858Z,3.37
2023-05-03T03:07:00.393Z,2.87
2023-05-03T03:09:28.557Z,3.37
2023-05-03T03:11:56.767Z,2.90
2023-05-03T03:14:24.956Z,2.93
2023-05-03T03:16:54.017Z,3.00
2023-05-03T03:19:22.148Z,2.97
2023-05-03T03:21:50.838Z,3.17
2023-05-03T03:24:20.668Z,2.83
2023-05-03T03:26:48.859Z,2.93
2023-05-03T03:29:16.971Z,2.70
2023-05-03T03:31:45.312Z,2.60
2023-05-03T03:34:13.969Z,2.60
2023-05-03T03:36:42.069Z,2.60
2023-05-03T03:39:10.229Z,2.80
2023-05-03T03:41:39.818Z,2.70
2023-05-03T03:44:08.640Z,2.70
2023-05-03T03:46:36.899Z,2.43
2023-05-03T03:49:05.077Z,2.50
2023-05-03T03:51:33.259Z,2.53
2023-05-03T03:54:01.504Z,2.70
2023-05-03T03:56:29.655Z,2.60
2023-05-03T03:58:59.162Z,2.37
2023-05-03T04:01:28.154Z,2.87
2023-05-03T04:03:56.384Z,2.67
2023-05-03T04:06:24.647Z,2.63
2023-05-03T04:08:52.832Z,2.53
2023-05-03T04:11:21.428Z,2.40
2023-05-03T04:13:49.658Z,3.20
2023-05-03T04:16:19.222Z,2.63
2023-05-03T04:18:47.414Z,2.70
2023-05-03T04:21:15.734Z,2.43
2023-05-03T04:23:43.894Z,2.60
2023-05-03T04:26:23.606Z,2.63
2023-05-03T04:28:58.678Z,2.57
2023-05-03T04:31:28.301Z,2.20
2023-05-03T04:33:56.684Z,2.23
2023-05-03T04:36:26.681Z,2.40
2023-05-03T04:38:54.838Z,2.30
2023-05-03T04:41:24.385Z,2.33
2023-05-03T04:43:53.254Z,2.37
2023-05-03T04:46:21.530Z,2.50
2023-05-03T04:48:51.241Z,3.10
2023-05-03T04:51:19.435Z,2.40
2023-05-03T04:53:47.660Z,2.47
2023-05-03T04:56:15.930Z,2.00
2023-05-03T04:58:45.000Z,2.37
2023-05-03T05:01:14.149Z,2.50
2023-05-03T05:03:42.515Z,2.20
2023-05-03T05:06:12.598Z,2.30
2023-05-03T05:08:40.904Z,2.50
2023-05-03T05:11:09.076Z,2.97
2023-05-03T05:13:37.270Z,2.30
2023-05-03T05:16:05.474Z,3.20
2023-05-03T05:18:34.778Z,2.40
2023-05-03T05:21:03.280Z,2.20
2023-05-03T05:23:32.786Z,2.50
2023-05-03T05:26:01.112Z,2.53
2023-05-03T05:28:29.378Z,2.60
2023-05-03T05:30:57.551Z,2.80
2023-05-03T05:33:25.891Z,2.73
2023-05-03T05:35:54.272Z,2.20
2023-05-03T05:38:22.965Z,2.60
2023-05-03T05:40:52.409Z,2.40
2023-05-03T05:43:20.506Z,2.10
2023-05-03T05:45:48.670Z,2.23
2023-05-03T05:48:16.824Z,2.10
2023-05-03T05:50:45.110Z,2.20
2023-05-03T05:53:13.349Z,2.17
2023-05-03T05:55:41.627Z,2.23
2023-05-03T05:58:12.828Z,2.10
2023-05-03T06:00:41.030Z,2.00
2023-05-03T06:03:09.502Z,2.00
2023-05-03T06:05:37.787Z,2.10
2023-05-03T06:08:06.274Z,1.97
2023-05-03T06:10:34.697Z,2.20
2023-05-03T06:13:03.706Z,1.80
2023-05-03T06:15:33.246Z,2.20
2023-05-03T06:18:01.588Z,2.10
2023-05-03T06:20:29.804Z,1.90
2023-05-03T06:22:58.005Z,2.30
2023-05-03T06:25:26.183Z,2.20
2023-05-03T06:27:54.364Z,1.87
2023-05-03T06:30:23.684Z,2.30
2023-05-03T06:32:53.298Z,2.07
2023-05-03T06:35:21.845Z,1.80
2023-05-03T06:37:50.174Z,2.10
2023-05-03T06:40:18.700Z,1.90
2023-05-03T06:42:46.877Z,1.80
2023-05-03T06:45:15.003Z,2.10
2023-05-03T06:47:43.364Z,1.50
2023-05-03T06:50:13.973Z,1.67
2023-05-03T06:52:42.275Z,1.63
2023-05-03T06:55:10.710Z,1.70
2023-05-03T06:57:38.817Z,1.63
2023-05-03T07:00:07.595Z,1.90
2023-05-03T07:02:36.221Z,1.30
2023-05-03T07:05:04.422Z,2.60
2023-05-03T07:07:34.465Z,1.40
2023-05-03T07:10:02.799Z,1.50
2023-05-03T07:12:31.911Z,1.73
2023-05-03T07:15:00.151Z,1.90
2023-05-03T07:17:28.398Z,1.57
2023-05-03T07:19:56.660Z,1.83
2023-05-03T07:22:25.592Z,1.73
2023-05-03T07:24:57.275Z,2.20
2023-05-03T07:27:25.824Z,1.13
2023-05-03T07:29:54.037Z,1.60
2023-05-03T07:32:22.743Z,1.30
2023-05-03T07:34:51.017Z,1.30
2023-05-03T07:37:19.551Z,1.70
2023-05-03T07:39:47.887Z,1.40
2023-05-03T07:42:17.324Z,1.37
2023-05-03T07:44:45.555Z,1.40
2023-05-03T07:47:13.748Z,1.30
2023-05-03T07:49:41.992Z,1.40
2023-05-03T07:52:10.344Z,1.57
2023-05-03T07:54:38.717Z,1.67
2023-05-03T07:57:07.752Z,1.23
2023-05-03T07:59:38.707Z,1.47
2023-05-03T08:02:07.047Z,1.50
2023-05-03T08:04:35.803Z,1.50
2023-05-03T08:07:04.555Z,1.67
2023-05-03T08:09:32.659Z,1.80
2023-05-03T08:12:02.326Z,1.80
2023-05-03T08:14:30.633Z,1.60
2023-05-03T08:17:00.210Z,1.40
2023-05-03T08:19:28.517Z,1.47
2023-05-03T08:21:56.639Z,1.53
2023-05-03T08:24:25.514Z,2.23
2023-05-03T08:26:53.815Z,1.60
2023-05-03T08:29:22.137Z,1.50
2023-05-03T08:31:50.391Z,2.00
2023-05-03T08:34:19.933Z,2.23
2023-05-03T08:36:48.102Z,1.70
2023-05-03T08:39:16.365Z,2.00
2023-05-03T08:41:44.755Z,1.43
2023-05-03T08:44:14.282Z,2.23
2023-05-03T08:46:44.835Z,1.80
2023-05-03T08:49:14.115Z,1.57
2023-05-03T08:51:47.045Z,1.80
2023-05-03T08:54:15.794Z,1.93
2023-05-03T08:56:44.859Z,1.70
2023-05-03T08:59:13.073Z,1.80
2023-05-03T09:01:41.837Z,1.43
2023-05-03T09:04:11.185Z,1.50
2023-05-03T09:06:39.668Z,2.00
2023-05-03T09:09:09.679Z,1.63
2023-05-03T09:11:39.141Z,1.90
2023-05-03T09:14:11.159Z,2.20
2023-05-03T09:16:39.993Z,2.10
2023-05-03T09:19:11.458Z,2.10
2023-05-03T09:21:39.945Z,2.40
2023-05-03T09:24:16.292Z,2.20
2023-05-03T09:26:45.551Z,1.90
2023-05-03T09:29:28.233Z,2.00
2023-05-03T09:32:03.902Z,2.03
2023-05-03T09:34:32.218Z,2.00
2023-05-03T09:37:02.910Z,2.40
2023-05-03T09:39:32.418Z,2.17
2023-05-03T09:42:00.786Z,1.97
2023-05-03T09:44:41.933Z,2.00
2023-05-03T09:47:10.336Z,2.10
2023-05-03T09:49:39.489Z,2.50
2023-05-03T09:52:08.091Z,2.27
2023-05-03T09:54:37.645Z,2.20
2023-05-03T09:57:06.425Z,2.50
2023-05-03T09:59:34.746Z,2.30
2023-05-03T10:02:04.045Z,2.20
2023-05-03T10:04:40.850Z,2.30
2023-05-03T10:07:12.385Z,2.60
2023-05-03T10:09:44.438Z,2.30
2023-05-03T10:12:16.424Z,2.50
2023-05-03T10:14:45.503Z,2.33
2023-05-03T10:17:16.196Z,2.20
2023-05-03T10:19:51.150Z,2.77
2023-05-03T10:22:19.323Z,2.60
2023-05-03T10:25:10.526Z,2.20
2023-05-03T10:27:52.380Z,2.40
2023-05-03T10:30:31.208Z,2.50
2023-05-03T10:32:59.627Z,2.20
2023-05-03T10:35:28.830Z,2.33
2023-05-03T10:37:58.558Z,2.37
2023-05-03T10:40:42.504Z,2.20
2023-05-03T10:43:31.730Z,2.47
2023-05-03T10:46:00.236Z,2.47
2023-05-03T10:48:28.654Z,2.43
2023-05-03T10:50:56.977Z,2.90
2023-05-03T10:53:44.793Z,2.83
2023-05-03T10:56:15.659Z,3.03
2023-05-03T10:58:45.128Z,2.73
2023-05-03T11:01:14.353Z,2.63
2023-05-03T11:03:47.560Z,3.10
2023-05-03T11:06:32.491Z,2.57
2023-05-03T11:09:00.720Z,3.20
2023-05-03T11:11:31.050Z,2.90
2023-05-03T11:13:59.345Z,2.87
2023-05-03T11:16:27.611Z,2.83
2023-05-03T11:18:56.222Z,3.00
2023-05-03T11:21:24.824Z,3.00
2023-05-03T11:23:53.023Z,2.87
2023-05-03T11:26:26.186Z,3.07
2023-05-03T11:28:56.048Z,3.23
2023-05-03T11:31:24.255Z,3.73
2023-05-03T11:33:52.565Z,3.20
2023-05-03T11:36:20.731Z,3.40
2023-05-03T11:38:48.896Z,3.00
2023-05-03T11:41:18.045Z,2.93
2023-05-03T11:43:46.546Z,2.90
2023-05-03T11:46:18.725Z,3.10
2023-05-03T11:48:47.029Z,2.67
2023-05-03T11:51:15.205Z,3.17
2023-05-03T11:53:43.981Z,2.90
2023-05-03T11:56:15.416Z,3.20
2023-05-03T11:58:53.698Z,3.33
2023-05-03T12:01:24.078Z,4.40
2023-05-03T12:03:55.974Z,3.30
2023-05-03T12:06:24.923Z,2.73
2023-05-03T12:08:54.741Z,3.60
2023-05-03T12:11:25.974Z,3.03
2023-05-03T12:13:59.515Z,2.70
2023-05-03T12:16:29.590Z,3.40
2023-05-03T12:19:02.637Z,3.57
2023-05-03T12:21:54.292Z,3.00
2023-05-03T12:24:33.823Z,3.10
2023-05-03T12:27:03.409Z,3.40
2023-05-03T12:29:34.563Z,3.83
2023-05-03T12:32:05.445Z,3.20
2023-05-03T12:34:36.212Z,3.30
2023-05-03T12:37:06.606Z,3.20
2023-05-03T12:39:39.183Z,2.77
2023-05-03T12:42:09.198Z,3.03
2023-05-03T12:44:41.373Z,2.90
2023-05-03T12:47:16.179Z,3.63
2023-05-03T12:49:52.248Z,3.27
2023-05-03T12:52:37.024Z,3.42
2023-05-03T12:55:11.157Z,3.22
2023-05-03T12:57:40.020Z,3.72
2023-05-03T13:00:14.553Z,3.47
2023-05-03T13:07:55.562Z,3.33
2023-05-03T13:10:26.996Z,3.67
2023-05-03T13:12:55.273Z,3.95
2023-05-03T13:15:25.200Z,2.95
2023-05-03T13:17:54.865Z,3.42
2023-05-03T13:20:23.141Z,3.50
2023-05-03T13:22:51.369Z,3.38
2023-05-03T13:25:19.496Z,3.35
2023-05-03T13:27:50.271Z,3.25
2023-05-03T13:30:18.583Z,3.28
2023-05-03T13:32:46.807Z,3.20
2023-05-03T13:35:16.313Z,3.45
2023-05-03T13:37:44.543Z,3.30
2023-05-03T13:40:14.897Z,3.50
2023-05-03T13:42:43.105Z,3.20
2023-05-03T13:45:13.639Z,3.03
2023-05-03T13:48:04.891Z,2.72
2023-05-03T13:50:31.931Z,2.70
2023-05-03T13:53:00.054Z,2.70
2023-05-03T13:55:28.522Z,3.17
2023-05-03T13:57:56.686Z,3.13
2023-05-03T14:00:25.020Z,2.63
2023-05-03T14:02:53.749Z,3.15
2023-05-03T14:05:22.231Z,2.75
2023-05-03T14:07:51.826Z,3.35
2023-05-03T14:10:20.131Z,2.92
2023-05-03T14:12:48.385Z,2.78
2023-05-03T14:15:16.937Z,2.50
2023-05-03T14:17:48.223Z,3.63
2023-05-03T14:20:17.415Z,3.20
2023-05-03T14:22:46.401Z,3.28
2023-05-03T14:25:16.193Z,3.00
2023-05-03T14:27:44.410Z,2.80
2023-05-03T14:30:13.366Z,3.58
2023-05-03T14:32:41.570Z,3.17
2023-05-03T14:35:10.163Z,3.60
2023-05-03T14:37:38.288Z,3.60
2023-05-03T14:40:08.041Z,3.25
2023-05-03T14:42:37.713Z,3.63
2023-05-03T14:45:08.087Z,3.05
2023-05-03T14:47:38.794Z,3.15
2023-05-03T14:50:07.363Z,3.30
2023-05-03T14:52:35.755Z,3.35
2023-05-03T14:55:04.542Z,3.30
2023-05-03T14:57:33.732Z,3.60
2023-05-03T15:00:05.078Z,3.40
2023-05-03T15:02:33.556Z,3.33
2023-05-03T15:05:03.803Z,3.17
2023-05-03T15:07:32.525Z,3.13
2023-05-03T15:10:03.750Z,3.22
2023-05-03T15:12:32.388Z,3.30
2023-05-03T15:15:00.856Z,3.10
2023-05-03T15:17:30.914Z,3.67
2023-05-03T15:19:59.093Z,3.50
2023-05-03T15:22:27.279Z,3.40
2023-05-03T15:24:55.515Z,3.10
2023-05-03T15:27:23.737Z,3.30
2023-05-03T15:29:51.885Z,3.55
2023-05-03T15:32:20.282Z,3.42
2023-05-03T15:34:49.887Z,3.58
2023-05-03T15:37:18.068Z,3.10
2023-05-03T15:39:46.334Z,3.00
2023-05-03T15:42:14.462Z,3.33
2023-05-03T15:44:42.708Z,3.45
2023-05-03T15:47:10.871Z,3.00
2023-05-03T15:49:39.015Z,3.20
2023-05-03T15:52:09.171Z,3.22
2023-05-03T15:54:37.620Z,3.25
2023-05-03T15:57:05.844Z,3.28
2023-05-03T15:59:34.004Z,3.00
2023-05-03T16:02:03.271Z,3.40
2023-05-03T16:04:31.489Z,3.30
2023-05-03T16:06:59.626Z,3.00
2023-05-03T16:09:30.665Z,3.20
2023-05-03T16:11:59.132Z,2.80
2023-05-03T16:14:27.336Z,3.00
2023-05-03T16:16:55.792Z,3.03
2023-05-03T16:19:24.028Z,3.05
2023-05-03T16:21:52.195Z,3.38
2023-05-03T16:24:20.342Z,3.50
2023-05-03T16:26:50.928Z,3.00
2023-05-03T16:29:19.181Z,3.40
2023-05-03T16:31:47.412Z,3.53
2023-05-03T16:34:16.080Z,3.30
2023-05-03T16:36:45.141Z,3.17
2023-05-03T16:39:13.433Z,3.45
2023-05-03T16:41:41.951Z,3.10
2023-05-03T16:44:11.487Z,3.28
2023-05-03T16:46:40.598Z,3.58
2023-05-03T16:49:08.822Z,3.30
2023-05-03T16:51:37.577Z,3.63
2023-05-03T16:54:06.183Z,2.90
2023-05-03T16:56:34.664Z,3.80
2023-05-03T16:59:03.668Z,3.08
2023-05-03T17:01:33.342Z,3.33
2023-05-03T17:04:01.766Z,3.58
2023-05-03T17:06:30.455Z,3.13
2023-05-03T17:08:58.619Z,3.30
2023-05-03T17:11:26.774Z,3.00
2023-05-03T17:13:55.046Z,3.00
2023-05-03T17:16:23.577Z,3.25
2023-05-03T17:18:53.126Z,3.42
2023-05-03T17:21:21.363Z,3.42
2023-05-03T17:23:49.493Z,3.20
2023-05-03T17:26:17.806Z,3.35
2023-05-03T17:28:47.156Z,2.70
2023-05-03T17:31:15.486Z,3.13
2023-05-03T17:33:43.716Z,3.38
2023-05-03T17:36:13.378Z,3.50
2023-05-03T17:38:41.789Z,3.45
2023-05-03T17:41:10.324Z,3.60
2023-05-03T17:43:46.609Z,3.35
2023-05-03T17:46:15.249Z,3.60
2023-05-03T17:48:44.451Z,3.40
2023-05-03T17:51:14.152Z,3.83
2023-05-03T17:53:42.910Z,3.47
2023-05-03T17:56:14.531Z,3.50
2023-05-03T17:58:42.703Z,4.18
2023-05-03T18:01:11.248Z,3.63
2023-05-03T18:03:39.574Z,3.92
2023-05-03T18:06:09.545Z,3.78
2023-05-03T18:08:39.138Z,4.07
2023-05-03T18:11:07.336Z,3.70
2023-05-03T18:13:36.638Z,3.90
2023-05-03T18:16:08.062Z,3.70
2023-05-03T18:18:36.308Z,3.90
2023-05-03T18:21:05.155Z,3.90
2023-05-03T18:23:35.130Z,4.30
2023-05-03T18:26:05.448Z,3.83
2023-05-03T18:28:33.811Z,4.38
2023-05-03T18:31:03.847Z,3.93
2023-05-03T18:33:32.108Z,3.90
2023-05-03T18:36:00.289Z,3.90
2023-05-03T18:38:28.409Z,3.93
2023-05-03T18:40:56.904Z,3.87
2023-05-03T18:43:26.397Z,4.00
2023-05-03T18:45:54.747Z,4.43
2023-05-03T18:48:22.836Z,3.93
2023-05-03T18:50:51.005Z,4.13
2023-05-03T18:53:19.123Z,3.93
2023-05-03T18:55:47.282Z,4.33
2023-05-03T18:58:15.622Z,4.20
2023-05-03T19:00:45.111Z,4.23
2023-05-03T19:03:13.333Z,3.97
2023-05-03T19:05:41.541Z,4.17
2023-05-03T19:08:09.756Z,4.27
2023-05-03T19:10:37.937Z,4.00
2023-05-03T19:13:07.260Z,4.10
2023-05-03T19:15:35.451Z,4.17
2023-05-03T19:18:05.049Z,4.60
2023-05-03T19:20:33.308Z,4.20
2023-05-03T19:23:01.565Z,4.20
2023-05-03T19:25:29.729Z,4.40
2023-05-03T19:27:57.864Z,4.50
2023-05-03T19:30:26.214Z,4.80
2023-05-03T19:32:54.336Z,4.60
2023-05-03T19:35:24.031Z,4.40
2023-05-03T19:37:52.215Z,4.70
2023-05-03T19:40:21.596Z,4.77
2023-05-03T19:42:50.820Z,4.83
2023-05-03T19:45:18.985Z,4.63
2023-05-03T19:47:47.232Z,4.47
2023-05-03T19:50:15.438Z,5.20
2023-05-03T19:52:45.128Z,5.30
2023-05-03T19:55:13.461Z,4.90
2023-05-03T19:57:41.631Z,4.90
2023-05-03T20:00:10.577Z,5.03
2023-05-03T20:02:38.874Z,4.73
2023-05-03T20:05:08.058Z,4.83
2023-05-03T20:07:36.248Z,4.97
2023-05-03T20:10:06.213Z,5.03
2023-05-03T20:12:34.530Z,5.60
2023-05-03T20:15:02.809Z,5.00
2023-05-03T20:17:31.234Z,5.10
2023-05-03T20:20:00.638Z,5.33
2023-05-03T20:22:28.829Z,5.47
2023-05-03T20:24:57.080Z,5.00
2023-05-03T20:27:26.880Z,5.13
2023-05-03T20:29:55.279Z,5.07
2023-05-03T20:32:23.474Z,5.33
2023-05-03T20:34:51.617Z,5.07
2023-05-03T20:37:19.800Z,5.30
2023-05-03T20:39:48.018Z,4.90
2023-05-03T20:42:16.182Z,5.13
2023-05-03T20:44:46.185Z,5.47
2023-05-03T20:47:14.362Z,5.10
2023-05-03T20:49:42.608Z,5.30
2023-05-03T20:52:10.748Z,5.43
2023-05-03T20:54:42.135Z,5.20
2023-05-03T20:57:12.563Z,5.53
2023-05-03T20:59:40.791Z,4.90
2023-05-03T21:02:10.342Z,5.80
2023-05-03T21:04:38.760Z,5.27
2023-05-03T21:07:06.917Z,5.10
2023-05-03T21:09:35.189Z,5.47
2023-05-03T21:12:04.066Z,6.03
2023-05-03T21:14:32.192Z,5.53
2023-05-03T21:17:01.396Z,5.57
2023-05-03T21:19:31.148Z,5.10
2023-05-03T21:21:59.813Z,5.60
2023-05-03T21:24:29.149Z,5.10
2023-05-03T21:26:57.451Z,5.20
2023-05-03T21:29:25.579Z,5.23
2023-05-03T21:31:53.809Z,5.60
2023-05-03T21:34:22.010Z,5.60
2023-05-03T21:36:51.605Z,5.23
2023-05-03T21:39:21.313Z,5.53
2023-05-03T21:41:49.613Z,5.33
2023-05-03T21:44:18.529Z,5.23
2023-05-03T21:46:46.714Z,5.60
2023-05-03T21:49:14.982Z,5.53
2023-05-03T21:51:43.326Z,5.33
2023-05-03T21:54:12.920Z,5.33
2023-05-03T21:56:41.072Z,5.10
2023-05-03T21:59:09.278Z,5.13
2023-05-03T22:01:38.054Z,5.10
2023-05-03T22:04:06.430Z,5.13
2023-05-03T22:06:34.717Z,5.20
2023-05-03T22:09:02.902Z,5.10
2023-05-03T22:11:32.530Z,5.10
2023-05-03T22:14:07.930Z,5.10
2023-05-03T22:16:37.321Z,5.60
2023-05-03T22:19:05.568Z,5.67
2023-05-03T22:21:33.708Z,5.40
2023-05-03T22:24:01.879Z,5.00
2023-05-03T22:26:30.357Z,5.00
2023-05-03T22:28:59.815Z,5.27
2023-05-03T22:31:30.132Z,5.03
2023-05-03T22:33:58.447Z,5.10
2023-05-03T22:36:26.652Z,5.20
2023-05-03T22:38:55.414Z,5.13
2023-05-03T22:41:23.629Z,4.83
2023-05-03T22:43:51.855Z,5.20
2023-05-03T22:46:22.673Z,4.90
2023-05-03T22:48:51.170Z,5.07
2023-05-03T22:51:19.306Z,5.17
2023-05-03T22:53:47.470Z,4.87
2023-05-03T22:56:15.693Z,5.17
2023-05-03T22:58:43.906Z,4.90
2023-05-03T23:01:12.493Z,5.40
2023-05-03T23:03:42.683Z,5.33
2023-05-03T23:06:11.305Z,5.10
2023-05-03T23:08:39.807Z,5.33
2023-05-03T23:11:08.179Z,5.00
2023-05-03T23:13:36.877Z,5.70
2023-05-03T23:16:05.130Z,5.60
2023-05-03T23:18:33.290Z,5.10
2023-05-03T23:21:02.747Z,5.20
2023-05-03T23:23:31.020Z,5.63
2023-05-03T23:25:59.181Z,5.30
2023-05-03T23:28:27.761Z,5.67
2023-05-03T23:30:56.324Z,5.57
2023-05-03T23:33:25.342Z,5.90
2023-05-03T23:35:53.922Z,5.80
2023-05-03T23:38:23.444Z,5.80
2023-05-03T23:40:51.573Z,5.63
2023-05-03T23:43:19.746Z,5.90
2023-05-03T23:45:47.932Z,6.23
2023-05-03T23:48:16.485Z,5.83
2023-05-03T23:50:44.768Z,6.17
2023-05-03T23:53:12.859Z,5.97
2023-05-03T23:55:42.485Z,6.73
2023-05-03T23:58:10.681Z,5.63
